Huvudsida
METAR-TAF:

METAR-TAF

Flygplatser :

Vidsels flygplats

Vidsel, Sverige

latitud: 65-52N, longitud: 020-08E, höjd: 180 m

Aktuellt väderrapport

Denna rapport gjordes för 43 minuter sedan, klockan 03:20 UTC
Vind 6 kt från nordväst
Temperatur -5°C
Fuktighet 93%
Tryck 988 hPa
Sikt: 8000 m
lätt snö

METAR: ESPE 190320Z AUTO 32006KT 8000 -SN BKN018/// BKN050/// OVC082/// M05/M06 Q0988

Tid: 05:03 (04:03 UTC)

Väderprognos

Denna rapport gjordes för 16 timmar och 38 minuter sedan, klockan 11:25 UTC
Prognos gäller från 18 kl. 12 UTC till 18 kl. 15 UTC
Vind 5 kt från väst
Sikt 10 km eller mer
Inga moln under 1 500 m eller inga cumulonimbus

TAF: ESPE 181125Z 1812/1815 27005KT CAVOK RMK MIL

Aktuella väderrapporter och prognoser från 4000 flygplatser (METAR- och TAF-rapporter).

De tillgängliga stationerna syns som gula och röda prickar på kartan.

För musen över prickarna för att se namnen på stationerna.

Klicka sedan för att få väderrapporter och prognoser.

För att ändra kartan: Klicka på de gröna knapparna med ett svart kors på för att zooma in; den gröna knappen med ett streck på för att zooma ut; eller på de gröna pilarna för angränsande kartor.


METAR-TAF: